Erie, PA

11:06 PM EDT on July 30, 2015 (GMT -0400)
South Erie | | Change Station
CLOSE
Current Station
Personal Weather Station
Location: Erie, PA
Elevation: 833 ft
Nearby Weather Stations
Active Advisory: Beach Hazard Statement

Elev 833 ft 42.09 °N, 80.08 °W | Updated 28 seconds ago

Clear
Clear
73.6 °F
Feels Like 76 °F
N
0.0
Wind Variable Wind from SSW
Gusts 0.0 mph

Today
High -- | Low -- °F
--% Chance of Precip.
Yesterday
High -- | Low -- °F
Precip. -- in
6:11 AM 8:41 PM
Full, 100% visible
Pressure 29.92 in
Visibility 10.0 miles
Clouds Mostly Cloudy 7500 ft
Heat Index 76 °F
Dew Point 61 °F
Humidity 64%
Rainfall 0.08 in
Snow Depth Not available.
UV 0 out of 12
Pollen 7.40 out of 12
Air Quality Not available.
Flu Activity Not available.
METAR KERI 310251Z 22006KT 10SM BKN075 23/15 A2993 RMK AO2 SLP130 T02280150 53003

More Conditions Fewer Conditions

Pressure 29.92 in
Visibility 10.0 miles
Clouds Mostly Cloudy 7500 ft
Heat Index 76 °F
Dew Point 61 °F
Humidity 64%
Rainfall 0.08 in
Snow Depth Not available.
UV 0 out of 12
Pollen 7.40 out of 12
Air Quality Not available.
Flu Activity Not available.
METAR KERI 310251Z 22006KT 10SM BKN075 23/15 A2993 RMK AO2 SLP130 T02280150 53003

More Conditions Fewer Conditions

10-Day Weather Forecast

×

Almanac

Astronomy

Jul. 30, 2015 Rise Set
Actual Time
Civil Twilight
Nautical Twilight
Astronomical Twilight
Moon
Length of Visible Light
Length of Day
Tomorrow will be .
, % of the Moon is Illuminated

Today's Extremes

State Highs State Lows

Community

WunderPhotos

Upload Photos

1,842,594 photos uploaded!

WunderBlogs® & News

Nearby

Air Quality

  Air Quality AQ Index Pollutant
Not available.

Snow Depth

Station Depth Elevation

Earthquake Activity

City Distance Mag. Time & Date
Minimum magnitude displayed is 2.5.

Coastal Water Temperatures

Place Temperature

Stations

Nearby Weather Stations

Station Location Temp. Windchill Dew Point Humidity Wind Precip. Elev Updated Type
                   
Beach Hazard Statement
Statement as of 10:25 PM EDT on July 30, 2015

... Beach hazards statement remains in effect until 3 am EDT
Friday...

* hazards... high swimming risk.

* Timing... through 3 am Friday.

* Location... from Willowick Ohio to Ripley New York.

* Potential impacts..dangerous swimming conditions will occur
from currents and high waves.

Precautionary/preparedness actions...

Swimming risk exists today. The combination of wind and waves
will make for potentially dangerous conditions for swimmers
including the risk of rip currents. Follow the instruction of
local authorities or stay out of the water.